KWWD/WWD METAR and TAF weather

Enter ICAO airport designator
Station Type Date Time Source
KWWD METAR 2020/07/15 03:56 UTC NOAA

KWWD 150356Z AUTO 00000KT 10SM CLR 23/20 A3007 RMK AO2 SLP182 T02330200


Station Type Date Time Source
KWWD Decoded METAR 2020/07/15 03:56 UTC NOAA

Wildwood, Cape May County Airport, NJ, United States (KWWD) 39-01N 074-55W
Jul 14, 2020 - 11:56 PM EDT / 2020.07.15 0356 UTC
Wind: Calm:0
Visibility: 10 mile(s):0
Sky conditions: clear
Temperature: 73.9 F (23.3 C)
Dew Point: 68.0 F (20.0 C)
Relative Humidity: 81%
Pressure (altimeter): 30.07 in. Hg (1018 hPa)
ob: KWWD 150356Z AUTO 00000KT 10SM CLR 23/20 A3007 RMK AO2 SLP182 T02330200
cycle: 4

Station Type Date Time Source
KWWD TAF UTC NOAA

Error!

Example: see airport list